Time;durP1;ratioP1;P1;durP2;ratioP2;P2;SDS_P1;SDS_P2;PMS_P1;PMS_P2;Temp;Humidity;BMP_temperature;BMP_pressure;BME280_temperature;BME280_humidity;BME280_pressure;Samples;Min_cycle;Max_cycle;Signal;HPM_P1;HPM_P2
2022/08/19 00:01:37;;;;;;;17.10;15.60;;;22.00;1.00;;;;;;4991953;28;20765;-64
2022/08/19 00:04:06;;;;;;;17.50;15.90;;;21.80;99.90;;;;;;4991249;28;20946;-64
2022/08/19 00:06:35;;;;;;;18.33;16.50;;;21.90;99.90;;;;;;4962682;28;20428;-64
2022/08/19 00:09:01;;;;;;;19.20;17.23;;;21.90;99.90;;;;;;4989352;28;20964;-65
2022/08/19 00:11:27;;;;;;;25.53;16.57;;;22.00;99.90;;;;;;4991410;28;20507;-65
2022/08/19 00:13:54;;;;;;;18.30;16.50;;;22.00;99.90;;;;;;4991623;28;20436;-65
2022/08/19 00:16:20;;;;;;;19.53;17.83;;;22.10;1.00;;;;;;4991075;28;20419;-65
2022/08/19 00:18:47;;;;;;;19.50;17.60;;;22.00;99.90;;;;;;4990678;28;20948;-65
2022/08/19 00:21:14;;;;;;;19.87;18.00;;;21.90;1.00;;;;;;4990967;28;20428;-64
2022/08/19 00:23:40;;;;;;;20.00;18.10;;;21.80;19.80;;;;;;4991521;28;20436;-65
2022/08/19 00:26:07;;;;;;;20.40;18.70;;;21.70;1.00;;;;;;4991041;28;20432;-65
2022/08/19 00:28:35;;;;;;;20.87;18.90;;;21.80;1.00;;;;;;4990313;28;20880;-65
2022/08/19 00:31:05;;;;;;;22.10;19.80;;;21.80;99.90;;;;;;4990937;28;20455;-65
2022/08/19 00:33:32;;;;;;;21.50;19.60;;;21.70;99.90;;;;;;4986085;28;20595;-63
2022/08/19 00:35:59;;;;;;;19.87;17.67;;;21.60;99.90;;;;;;4991153;28;20423;-66
2022/08/19 00:38:25;;;;;;;20.77;18.87;;;21.70;99.90;;;;;;4990331;28;20463;-65
2022/08/19 00:40:51;;;;;;;20.37;18.53;;;21.70;99.90;;;;;;4990626;28;20424;-65
2022/08/19 00:43:23;;;;;;;22.20;20.13;;;21.90;1.00;;;;;;4970480;28;20478;-65
2022/08/19 00:45:49;;;;;;;22.33;20.30;;;21.80;1.00;;;;;;4987955;28;20188;-65
2022/08/19 00:48:16;;;;;;;20.93;19.03;;;21.60;1.00;;;;;;4990111;28;20534;-65
2022/08/19 00:50:44;;;;;;;20.73;18.73;;;21.70;1.00;;;;;;4990649;28;20486;-65
2022/08/19 00:53:14;;;;;;;23.77;21.67;;;21.70;1.00;;;;;;4990920;28;20472;-64
2022/08/19 00:55:44;;;;;;;22.40;20.40;;;21.70;1.00;;;;;;4989022;28;21012;-64
2022/08/19 00:58:13;;;;;;;28.03;20.37;;;21.60;99.90;;;;;;4987114;28;20535;-64
2022/08/19 01:00:39;;;;;;;24.70;22.23;;;21.70;99.90;;;;;;4990731;28;20420;-64
2022/08/19 01:03:08;;;;;;;22.90;20.60;;;21.70;1.00;;;;;;4990179;28;20911;-65
2022/08/19 01:05:35;;;;;;;25.30;22.30;;;21.70;1.00;;;;;;4990760;28;20652;-64
2022/08/19 01:08:04;;;;;;;22.00;19.80;;;21.80;99.90;;;;;;4989112;28;20964;-64
2022/08/19 01:10:35;;;;;;;23.80;21.57;;;21.90;1.00;;;;;;4990119;28;20428;-64
2022/08/19 01:13:02;;;;;;;23.77;21.37;;;22.00;99.90;;;;;;4989966;28;20427;-64
2022/08/19 01:15:35;;;;;;;21.90;19.73;;;22.00;99.90;;;;;;4990462;28;20988;-64
2022/08/19 01:18:06;;;;;;;23.30;21.30;;;22.10;99.90;;;;;;4989899;28;20794;-64
2022/08/19 01:20:34;;;;;;;22.73;20.63;;;22.00;92.70;;;;;;4984565;28;20795;-64
2022/08/19 01:23:00;;;;;;;22.00;19.90;;;22.00;99.90;;;;;;4990562;28;20779;-64
2022/08/19 01:25:45;;;;;;;21.23;19.30;;;21.90;1.00;;;;;;4984302;28;20436;-65
2022/08/19 01:28:21;;;;;;;19.97;17.93;;;21.90;1.00;;;;;;4988986;28;20521;-65
2022/08/19 01:30:47;;;;;;;20.27;18.37;;;22.00;1.00;;;;;;4989644;28;20512;-65
2022/08/19 01:33:14;;;;;;;22.97;20.77;;;22.00;1.00;;;;;;4989465;28;20432;-64
2022/08/19 01:35:40;;;;;;;24.07;21.67;;;21.90;1.00;;;;;;4989896;28;20427;-64
2022/08/19 01:38:10;;;;;;;21.83;19.73;;;21.80;1.00;;;;;;4989249;28;20464;-65
2022/08/19 01:40:39;;;;;;;21.67;19.57;;;21.70;1.00;;;;;;4990151;28;20428;-65
2022/08/19 01:43:06;;;;;;;21.13;19.33;;;21.50;99.90;;;;;;4989349;28;20412;-64
2022/08/19 01:45:33;;;;;;;22.37;20.07;;;21.70;99.90;;;;;;4989718;28;20510;-65
2022/08/19 01:48:00;;;;;;;23.67;20.63;;;21.90;1.00;;;;;;4989084;28;20805;-64
2022/08/19 01:50:26;;;;;;;22.90;20.80;;;21.90;1.00;;;;;;4989499;28;20420;-64
2022/08/19 01:52:52;;;;;;;21.20;19.20;;;21.80;1.00;;;;;;4989699;28;20442;-64
2022/08/19 01:55:20;;;;;;;22.87;20.60;;;21.90;99.90;;;;;;4989644;28;20436;-64
2022/08/19 01:57:53;;;;;;;21.80;19.80;;;21.80;99.90;;;;;;4988669;28;20244;-64
2022/08/19 02:00:22;;;;;;;29.73;23.40;;;21.90;99.90;;;;;;4989573;28;20762;-64
2022/08/19 02:02:47;;;;;;;21.70;19.70;;;21.80;1.00;;;;;;4988619;28;20420;-63
2022/08/19 02:05:13;;;;;;;23.27;21.07;;;21.60;19.00;;;;;;4989601;28;20447;-63
2022/08/19 02:07:40;;;;;;;22.00;19.90;;;21.50;99.90;;;;;;4988001;28;20204;-65
2022/08/19 02:10:10;;;;;;;19.93;18.03;;;21.50;99.90;;;;;;4988844;28;20420;-65
2022/08/19 02:12:36;;;;;;;23.17;20.80;;;21.70;1.00;;;;;;4988550;28;20507;-65
2022/08/19 02:15:03;;;;;;;19.43;17.53;;;21.90;99.90;;;;;;4989582;28;20511;-65
2022/08/19 02:17:30;;;;;;;25.37;19.30;;;21.90;99.90;;;;;;4988073;28;20185;-65
2022/08/19 02:19:56;;;;;;;20.17;18.07;;;21.90;99.90;;;;;;4988618;28;20499;-64
2022/08/19 02:22:23;;;;;;;22.27;20.17;;;21.90;92.50;;;;;;4989482;28;20674;-65
2022/08/19 02:24:49;;;;;;;23.30;20.80;;;22.00;1.00;;;;;;4989470;28;20177;-65
2022/08/19 02:27:15;;;;;;;26.03;21.30;;;21.90;1.20;;;;;;4987957;28;20424;-64
2022/08/19 02:29:41;;;;;;;24.70;22.40;;;21.90;37.00;;;;;;4988989;28;20820;-66
2022/08/19 02:32:07;;;;;;;23.40;21.20;;;21.90;95.30;;;;;;4989001;28;20519;-65
2022/08/19 02:34:34;;;;;;;21.70;19.77;;;21.70;99.90;;;;;;4988615;28;20574;-65
2022/08/19 02:37:00;;;;;;;22.40;20.37;;;21.70;1.00;;;;;;4988942;28;20419;-65
2022/08/19 02:39:26;;;;;;;24.83;22.43;;;21.80;99.90;;;;;;4988221;28;20870;-65
2022/08/19 02:41:52;;;;;;;24.07;21.77;;;21.80;99.90;;;;;;4989037;28;20480;-65
2022/08/19 02:44:18;;;;;;;23.93;21.63;;;21.60;94.30;;;;;;4988504;28;20193;-64
2022/08/19 02:46:47;;;;;;;23.20;20.73;;;21.70;1.00;;;;;;4988572;28;20511;-65
2022/08/19 02:49:14;;;;;;;23.63;21.37;;;21.70;1.00;;;;;;4987335;28;20212;-68
2022/08/19 02:51:44;;;;;;;67.20;25.00;;;21.70;1.00;;;;;;4989193;28;20452;-65
2022/08/19 02:54:12;;;;;;;29.10;22.67;;;21.70;1.00;;;;;;4988835;28;20487;-65
2022/08/19 02:56:40;;;;;;;21.90;19.90;;;21.80;99.90;;;;;;4988449;28;21057;-65
2022/08/19 02:59:10;;;;;;;22.33;20.23;;;21.90;99.90;;;;;;4988481;28;20470;-65
2022/08/19 03:01:38;;;;;;;26.40;20.10;;;21.80;1.00;;;;;;4989429;28;20473;-64
2022/08/19 03:04:05;;;;;;;24.53;21.90;;;21.80;1.00;;;;;;4970481;28;20416;-66
2022/08/19 03:06:31;;;;;;;24.17;21.10;;;21.80;99.90;;;;;;4984278;28;20424;-65
2022/08/19 03:08:58;;;;;;;22.83;20.37;;;21.80;1.00;;;;;;4987854;28;21063;-65
2022/08/19 03:11:30;;;;;;;24.60;22.20;;;21.70;1.00;;;;;;4987942;28;20482;-63
2022/08/19 03:13:56;;;;;;;23.57;21.27;;;21.70;1.00;;;;;;4988605;28;20424;-63
2022/08/19 03:16:25;;;;;;;23.37;20.87;;;21.80;99.90;;;;;;4987885;28;20499;-64
2022/08/19 03:18:52;;;;;;;24.37;21.10;;;21.80;99.90;;;;;;4986701;28;20888;-64
2022/08/19 03:21:21;;;;;;;29.30;22.00;;;21.90;99.90;;;;;;4988249;28;20431;-64
2022/08/19 03:23:47;;;;;;;22.90;20.83;;;22.00;1.00;;;;;;4988741;28;21220;-64
2022/08/19 03:26:14;;;;;;;25.90;23.30;;;21.90;99.90;;;;;;4987890;28;20489;-64
2022/08/19 03:28:41;;;;;;;21.90;19.70;;;21.80;99.90;;;;;;4987383;28;20224;-64
2022/08/19 03:31:12;;;;;;;20.77;18.73;;;21.80;99.90;;;;;;4987405;28;20456;-64
2022/08/19 03:33:38;;;;;;;25.10;21.50;;;21.80;99.90;;;;;;4982224;28;20519;-64
2022/08/19 03:36:22;;;;;;;24.67;22.30;;;21.90;99.90;;;;;;4988417;28;20452;-64
2022/08/19 03:38:51;;;;;;;25.30;22.60;;;21.90;99.90;;;;;;4987238;28;20472;-64
2022/08/19 03:41:19;;;;;;;23.90;21.43;;;21.80;99.90;;;;;;4987735;28;20467;-64
2022/08/19 03:43:46;;;;;;;23.03;20.87;;;21.90;99.90;;;;;;4987976;28;20494;-64
2022/08/19 03:46:20;;;;;;;23.67;21.40;;;21.80;99.90;;;;;;4987221;28;21211;-64
2022/08/19 03:48:47;;;;;;;22.67;20.57;;;21.80;99.90;;;;;;4986908;28;20503;-64
2022/08/19 03:51:27;;;;;;;27.53;24.00;;;21.80;1.00;;;;;;4987560;28;21497;-65
2022/08/19 03:53:54;;;;;;;25.97;23.20;;;21.70;1.00;;;;;;4987968;28;20447;-64
2022/08/19 03:56:21;;;;;;;23.93;21.60;;;21.80;1.00;;;;;;4987136;28;20416;-64
2022/08/19 03:58:47;;;;;;;27.87;22.17;;;21.70;1.00;;;;;;4986912;28;20547;-64
2022/08/19 04:01:16;;;;;;;24.03;21.67;;;21.60;1.00;;;;;;4987338;28;20507;-67
2022/08/19 04:03:41;;;;;;;29.20;23.90;;;21.60;57.20;;;;;;4987578;28;20181;-65
2022/08/19 04:06:16;;;;;;;26.80;23.30;;;21.70;1.00;;;;;;4983006;28;20475;-66
2022/08/19 04:08:43;;;;;;;26.47;23.60;;;21.60;1.00;;;;;;4982406;28;20755;-64
2022/08/19 04:11:12;;;;;;;30.30;24.00;;;21.50;99.90;;;;;;4987675;28;20859;-66
2022/08/19 04:13:38;;;;;;;50.83;26.03;;;21.50;1.00;;;;;;4982202;28;20423;-65
2022/08/19 04:16:05;;;;;;;25.40;22.90;;;21.40;1.00;;;;;;4987406;28;20467;-64
2022/08/19 04:18:32;;;;;;;26.77;23.87;;;21.10;99.90;;;;;;4986126;28;20300;-67
2022/08/19 04:20:58;;;;;;;27.80;22.40;;;21.10;1.00;;;;;;4987730;28;20442;-68
2022/08/19 04:23:24;;;;;;;30.87;22.40;;;21.20;1.00;;;;;;4987880;28;20912;-64
2022/08/19 04:25:50;;;;;;;27.17;24.30;;;21.40;99.90;;;;;;4987348;28;20286;-65
2022/08/19 04:28:15;;;;;;;30.87;25.77;;;21.10;1.00;;;;;;4986693;28;20201;-64
2022/08/19 04:30:47;;;;;;;27.53;24.80;;;21.10;1.00;;;;;;4990260;28;20685;-65
2022/08/19 04:33:15;;;;;;;32.03;23.73;;;20.90;99.90;;;;;;4990504;28;20181;-64
2022/08/19 04:35:43;;;;;;;24.30;21.90;;;21.10;99.90;;;;;;4991532;28;20424;-64
2022/08/19 04:38:09;;;;;;;37.63;25.20;;;21.10;1.00;;;;;;4990201;28;20452;-64
2022/08/19 04:43:29;;;;;;;27.57;21.67;;;21.50;1.00;;;;;;4991285;28;21264;-64
2022/08/19 04:45:56;;;;;;;30.97;22.80;;;21.60;1.00;;;;;;4990937;28;20423;-64
2022/08/19 04:48:31;;;;;;;26.07;22.97;;;21.60;1.00;;;;;;4989372;28;20446;-64
2022/08/19 04:50:57;;;;;;;26.53;23.57;;;21.60;1.00;;;;;;4990824;28;21109;-64
2022/08/19 04:53:29;;;;;;;31.30;24.13;;;21.30;1.00;;;;;;4990898;28;20415;-64
2022/08/19 04:55:59;;;;;;;38.17;21.90;;;21.40;15.40;;;;;;4990471;28;20436;-64
2022/08/19 04:58:27;;;;;;;26.33;23.43;;;21.40;1.00;;;;;;4989644;28;20586;-64
2022/08/19 05:00:53;;;;;;;31.43;23.00;;;21.50;1.00;;;;;;4990201;28;20451;-65
2022/08/19 05:03:20;;;;;;;27.90;24.27;;;21.40;1.00;;;;;;4988772;28;20431;-64
2022/08/19 05:05:50;;;;;;;25.20;22.50;;;21.30;1.00;;;;;;4990512;28;20424;-64
2022/08/19 05:08:21;;;;;;;29.90;25.27;;;21.50;1.00;;;;;;4989439;28;20440;-64
2022/08/19 05:10:49;;;;;;;30.10;26.70;;;21.40;1.00;;;;;;4990511;28;20728;-64
2022/08/19 05:13:17;;;;;;;28.57;25.67;;;21.30;99.90;;;;;;4990282;28;20436;-65
2022/08/19 05:15:44;;;;;;;31.73;27.50;;;21.20;1.00;;;;;;4988784;28;20844;-65
2022/08/19 05:23:39;;;;;;;30.90;26.20;;;21.50;99.90;;;;;;4991474;28;20424;-65
2022/08/19 05:26:05;;;;;;;37.90;25.73;;;21.50;1.00;;;;;;4990442;28;20428;-65
2022/08/19 05:28:31;;;;;;;28.63;23.67;;;21.60;99.90;;;;;;4989312;28;20217;-65
2022/08/19 05:30:57;;;;;;;33.30;24.70;;;21.60;99.90;;;;;;4979475;28;20465;-65
2022/08/19 05:33:24;;;;;;;30.40;23.70;;;21.70;82.90;;;;;;4990271;28;20401;-64
2022/08/19 05:35:50;;;;;;;27.50;23.47;;;21.80;1.00;;;;;;4990054;28;20733;-65
2022/08/19 05:38:20;;;;;;;46.97;25.80;;;21.90;1.00;;;;;;4987035;28;20456;-65
2022/08/19 05:40:46;;;;;;;33.30;22.07;;;21.90;1.00;;;;;;4989490;28;20554;-66
2022/08/19 05:43:15;;;;;;;32.20;23.77;;;21.80;60.00;;;;;;4988877;28;20852;-62
2022/08/19 05:45:42;;;;;;;32.67;24.53;;;21.70;55.30;;;;;;4987924;28;20451;-64
2022/08/19 05:48:12;;;;;;;31.47;27.73;;;21.70;1.00;;;;;;4986226;28;20905;-65
2022/08/19 05:50:41;;;;;;;30.53;24.63;;;20.80;99.90;;;;;;4988970;28;20522;-63
2022/08/19 05:53:08;;;;;;;30.47;23.50;;;20.90;99.90;;;;;;4987617;28;20436;-66
2022/08/19 05:55:35;;;;;;;29.53;25.50;;;21.10;1.00;;;;;;4989772;28;20515;-63
2022/08/19 05:58:01;;;;;;;30.27;24.53;;;21.10;1.00;;;;;;4987655;28;20468;-63
2022/08/19 06:00:27;;;;;;;31.13;24.00;;;21.10;1.00;;;;;;4985266;28;20499;-64
2022/08/19 06:02:55;;;;;;;27.03;23.60;;;21.20;99.90;;;;;;4990312;28;20407;-62
2022/08/19 06:05:21;;;;;;;34.83;24.90;;;21.30;36.00;;;;;;4989921;28;20420;-64
2022/08/19 06:07:46;;;;;;;36.43;27.53;;;21.40;1.00;;;;;;4972731;28;20432;-62
2022/08/19 06:10:12;;;;;;;30.47;25.10;;;21.40;1.00;;;;;;4990329;28;20248;-63
2022/08/19 06:12:39;;;;;;;29.70;23.37;;;21.50;1.00;;;;;;4990864;28;20173;-63
2022/08/19 06:15:12;;;;;;;29.23;23.70;;;21.60;1.00;;;;;;4996446;28;20177;-64
2022/08/19 06:17:38;;;;;;;34.57;25.50;;;21.70;99.90;;;;;;4997567;28;20432;-65
2022/08/19 06:20:07;;;;;;;34.33;26.17;;;21.70;99.90;;;;;;4995215;28;20551;-63
2022/08/19 06:22:42;;;;;;;30.77;22.67;;;21.70;99.90;;;;;;4988532;28;21247;-64
2022/08/19 06:25:11;;;;;;;32.37;24.07;;;21.70;99.90;;;;;;4989357;28;20407;-65
2022/08/19 06:27:37;;;;;;;35.27;25.77;;;21.70;99.90;;;;;;4987559;28;20456;-65
2022/08/19 06:30:04;;;;;;;28.10;23.80;;;21.60;99.90;;;;;;4989320;28;20420;-64
2022/08/19 06:32:31;;;;;;;30.03;23.80;;;21.70;98.00;;;;;;4987561;28;20438;-66
2022/08/19 06:34:57;;;;;;;31.67;24.20;;;21.50;1.00;;;;;;4989048;28;20924;-65
2022/08/19 06:37:23;;;;;;;28.37;22.17;;;21.50;1.00;;;;;;4987090;28;21003;-64
2022/08/19 06:39:49;;;;;;;28.30;25.50;;;21.50;99.90;;;;;;4988413;28;20539;-67
2022/08/19 06:42:18;;;;;;;35.23;24.37;;;21.50;99.90;;;;;;4986899;28;20207;-63
2022/08/19 06:44:48;;;;;;;42.23;23.47;;;21.60;99.90;;;;;;4985269;28;20432;-62
2022/08/19 06:47:18;;;;;;;29.03;24.00;;;21.60;99.90;;;;;;4985283;28;21485;-62
2022/08/19 06:49:44;;;;;;;28.93;22.73;;;21.60;99.90;;;;;;4988014;28;20417;-64
2022/08/19 06:52:14;;;;;;;37.60;23.97;;;21.70;99.90;;;;;;4988627;28;20862;-64
2022/08/19 06:54:42;;;;;;;27.87;22.57;;;21.70;1.00;;;;;;4986434;28;20161;-65
2022/08/19 06:57:13;;;;;;;27.17;23.27;;;21.70;1.00;;;;;;4986432;28;21111;-65
2022/08/19 06:59:39;;;;;;;29.03;23.43;;;21.80;1.00;;;;;;4987879;28;20459;-65
2022/08/19 07:02:06;;;;;;;30.50;23.80;;;21.70;99.00;;;;;;4987135;28;20466;-64
2022/08/19 07:04:33;;;;;;;33.83;25.57;;;21.70;44.50;;;;;;4988264;28;20503;-65
2022/08/19 07:07:09;;;;;;;37.73;25.50;;;21.60;1.00;;;;;;4986443;28;20728;-62
2022/08/19 07:09:38;;;;;;;46.47;27.53;;;21.30;99.90;;;;;;4981162;28;20422;-63
2022/08/19 07:12:06;;;;;;;40.67;28.10;;;21.20;1.00;;;;;;4988990;28;20463;-65
2022/08/19 07:14:36;;;;;;;34.80;25.50;;;20.90;1.00;;;;;;4981528;28;20539;-65
2022/08/19 07:17:03;;;;;;;41.90;28.97;;;20.80;46.20;;;;;;4986870;28;20451;-65
2022/08/19 07:19:29;;;;;;;34.50;24.33;;;20.70;99.90;;;;;;4985446;28;20945;-64
2022/08/19 07:21:55;;;;;;;70.20;24.40;;;21.40;1.00;;;;;;4988462;28;20424;-61
2022/08/19 07:24:23;;;;;;;29.00;20.93;;;22.10;1.00;;;;;;4964043;28;20699;-64
2022/08/19 07:26:50;;;;;;;27.07;21.97;;;22.10;99.90;;;;;;4987267;28;20173;-61
2022/08/19 07:29:17;;;;;;;37.23;23.27;;;22.00;99.90;;;;;;4985359;28;20463;-62
2022/08/19 07:31:43;;;;;;;23.73;21.17;;;21.90;99.90;;;;;;4988219;28;20499;-64
2022/08/19 07:34:14;;;;;;;23.87;19.90;;;22.10;4.20;;;;;;4988127;28;20515;-60
2022/08/19 07:36:41;;;;;;;40.43;25.50;;;22.00;59.00;;;;;;4987594;28;20435;-62
2022/08/19 07:39:23;;;;;;;27.73;22.47;;;22.00;99.90;;;;;;4986516;28;20463;-63
2022/08/19 07:41:50;;;;;;;27.63;22.50;;;22.00;99.90;;;;;;4988064;28;20492;-60
2022/08/19 07:44:16;;;;;;;26.30;23.50;;;21.70;1.00;;;;;;4988886;28;20473;-61
2022/08/19 07:46:45;;;;;;;26.03;23.23;;;20.80;99.90;;;;;;4988139;28;20830;-65
2022/08/19 07:49:17;;;;;;;22.70;19.40;;;20.70;1.00;;;;;;4987240;28;20448;-64
2022/08/19 07:51:44;;;;;;;33.93;22.47;;;21.60;99.90;;;;;;4989680;28;20395;-65
2022/08/19 07:54:11;;;;;;;26.10;22.00;;;21.70;1.00;;;;;;4987975;28;20450;-65
2022/08/19 07:56:37;;;;;;;35.97;22.30;;;21.60;1.00;;;;;;4986763;28;20523;-64
2022/08/19 07:59:04;;;;;;;32.37;21.77;;;21.50;99.90;;;;;;4986430;28;20537;-64
2022/08/19 08:01:31;;;;;;;27.27;21.67;;;21.50;99.90;;;;;;4978915;28;20540;-66
2022/08/19 08:09:39;;;;;;;36.97;20.60;;;21.60;99.90;;;;;;4988929;28;20521;-67
2022/08/19 08:12:10;;;;;;;32.30;20.93;;;21.60;65.20;;;;;;4987521;28;20438;-65
2022/08/19 08:14:48;;;;;;;25.27;20.80;;;21.50;99.90;;;;;;4991843;28;20432;-64
2022/08/19 08:17:16;;;;;;;26.43;18.87;;;21.40;99.90;;;;;;4987368;28;20538;-65
2022/08/19 08:19:43;;;;;;;24.30;21.23;;;21.30;99.90;;;;;;4990113;28;20462;-65
2022/08/19 08:24:58;;;;;;;33.90;21.93;;;21.00;2.90;;;;;;4991875;28;20905;-66
2022/08/19 08:27:24;;;;;;;37.40;21.97;;;21.20;1.00;;;;;;4986705;28;20514;-64
2022/08/19 08:29:50;;;;;;;32.53;24.73;;;21.40;1.00;;;;;;4988478;28;20423;-66
2022/08/19 08:32:16;;;;;;;25.80;23.10;;;21.00;1.00;;;;;;4987750;28;20916;-65
2022/08/19 08:34:42;;;;;;;46.50;27.10;;;20.50;1.00;;;;;;4987998;28;20181;-64
2022/08/19 08:37:08;;;;;;;35.77;25.30;;;20.30;99.90;;;;;;4987773;28;20538;-65
2022/08/19 08:39:34;;;;;;;42.40;25.80;;;20.20;1.00;;;;;;4988256;28;20542;-64
2022/08/19 08:42:34;;;;;;;28.17;25.20;;;20.10;1.00;;;;;;4988033;28;20173;-65
2022/08/19 08:45:12;;;;;;;66.03;27.97;;;20.00;1.00;;;;;;4977327;28;20419;-67
2022/08/19 08:47:41;;;;;;;40.30;26.67;;;20.00;99.90;;;;;;4985301;28;20569;-63
2022/08/19 08:50:15;;;;;;;54.10;29.67;;;20.00;99.90;;;;;;4988755;28;20447;-65
2022/08/19 08:52:47;;;;;;;37.17;26.23;;;20.00;99.90;;;;;;4988440;28;20943;-64
2022/08/19 08:55:20;;;;;;;32.70;25.80;;;20.00;18.10;;;;;;4974470;28;20523;-64
2022/08/19 08:57:54;;;;;;;36.20;24.90;;;20.00;5.20;;;;;;4984530;28;21171;-66
2022/08/19 09:00:22;;;;;;;37.50;27.40;;;19.90;53.50;;;;;;4986967;28;20436;-66
2022/08/19 09:02:48;;;;;;;40.47;28.07;;;19.90;20.40;;;;;;4985255;28;20426;-66
2022/08/19 09:05:14;;;;;;;32.37;27.87;;;19.90;54.90;;;;;;4986867;28;20438;-66
2022/08/19 09:07:43;;;;;;;28.93;25.90;;;20.00;16.80;;;;;;4985636;28;20455;-66
2022/08/19 09:10:21;;;;;;;29.37;26.17;;;19.90;1.00;;;;;;4976529;28;20166;-65
2022/08/19 09:13:08;;;;;;;30.13;26.87;;;19.90;1.00;;;;;;4984818;28;20424;-64
2022/08/19 09:15:38;;;;;;;37.10;29.03;;;19.70;99.90;;;;;;4985892;28;20419;-65
2022/08/19 09:18:06;;;;;;;38.50;26.37;;;19.70;99.90;;;;;;4984324;28;20467;-64
2022/08/19 09:20:32;;;;;;;49.93;27.90;;;19.80;99.90;;;;;;4983491;28;20435;-64
2022/08/19 09:22:58;;;;;;;75.27;30.23;;;19.80;99.90;;;;;;4986546;28;20428;-67
2022/08/19 09:25:24;;;;;;;80.63;32.53;;;19.90;99.10;;;;;;4986669;28;20228;-65
2022/08/19 09:27:53;;;;;;;56.43;29.37;;;19.90;99.90;;;;;;4982885;28;20467;-62
2022/08/19 09:30:23;;;;;;;53.83;30.03;;;20.00;99.90;;;;;;4982517;28;20881;-66
2022/08/19 09:32:52;;;;;;;38.07;28.83;;;20.00;99.90;;;;;;4985588;28;20432;-66
2022/08/19 09:35:20;;;;;;;63.87;31.47;;;19.80;56.40;;;;;;4986806;28;20429;-65
2022/08/19 09:37:46;;;;;;;41.67;26.63;;;20.00;1.00;;;;;;4969515;28;20436;-62
2022/08/19 09:40:12;;;;;;;32.50;27.53;;;20.00;1.00;;;;;;4987661;28;20451;-67
2022/08/19 09:42:38;;;;;;;46.17;27.83;;;20.00;1.00;;;;;;4986286;28;20242;-67
2022/08/19 09:45:04;;;;;;;35.97;25.60;;;20.10;1.00;;;;;;4987446;28;20502;-67
2022/08/19 09:47:32;;;;;;;37.63;26.50;;;20.10;1.00;;;;;;4985807;28;20204;-66
2022/08/19 09:49:57;;;;;;;33.90;26.10;;;20.10;1.00;;;;;;4986654;28;20751;-63
2022/08/19 09:52:23;;;;;;;29.73;25.73;;;20.10;8.30;;;;;;4986571;28;20412;-65
2022/08/19 09:54:52;;;;;;;44.27;27.43;;;20.10;2.60;;;;;;4986828;28;20274;-65
2022/08/19 09:57:18;;;;;;;33.60;27.73;;;20.10;92.00;;;;;;4985836;28;20180;-67
2022/08/19 09:59:44;;;;;;;41.93;28.00;;;20.20;1.00;;;;;;4986405;28;20543;-66
2022/08/19 10:02:10;;;;;;;33.50;26.30;;;20.20;1.00;;;;;;4986382;28;20177;-65
2022/08/19 10:07:21;;;;;;;34.23;26.47;;;20.30;14.50;;;;;;4986373;28;20480;-66
2022/08/19 10:09:47;;;;;;;52.17;27.60;;;20.20;1.00;;;;;;4985475;28;20435;-65
2022/08/19 10:12:15;;;;;;;36.93;29.47;;;20.10;99.90;;;;;;4985105;28;20826;-64
2022/08/19 10:14:40;;;;;;;51.40;29.70;;;20.10;99.90;;;;;;4986205;28;20185;-66
2022/08/19 10:17:06;;;;;;;32.93;27.83;;;20.10;44.40;;;;;;4986432;28;20896;-67
2022/08/19 10:19:35;;;;;;;72.90;30.83;;;20.10;49.70;;;;;;4988571;28;20296;-65
2022/08/19 10:22:06;;;;;;;115.77;32.30;;;20.20;1.00;;;;;;4983048;28;20174;-67
2022/08/19 10:24:33;;;;;;;38.40;25.50;;;20.10;1.00;;;;;;4988992;28;20486;-67
2022/08/19 10:27:03;;;;;;;33.00;24.70;;;20.60;1.00;;;;;;4987531;28;20424;-66
2022/08/19 10:29:29;;;;;;;32.13;22.13;;;21.00;1.00;;;;;;4985565;28;20566;-66
2022/08/19 10:31:55;;;;;;;30.40;21.50;;;21.40;1.00;;;;;;4988611;28;20436;-66
2022/08/19 10:34:21;;;;;;;33.30;27.63;;;21.50;99.90;;;;;;4989103;28;20435;-65
2022/08/19 10:36:47;;;;;;;34.00;25.20;;;21.60;99.90;;;;;;4988711;28;20466;-66
2022/08/19 10:39:13;;;;;;;29.97;23.77;;;21.40;1.00;;;;;;4986708;28;20832;-64
2022/08/19 10:41:39;;;;;;;34.07;23.00;;;21.40;99.90;;;;;;4988262;28;20503;-66
2022/08/19 10:44:08;;;;;;;30.93;22.87;;;21.60;99.90;;;;;;4989399;28;20169;-66
2022/08/19 10:46:38;;;;;;;27.97;22.27;;;21.60;1.00;;;;;;4989121;28;20424;-64
2022/08/19 10:49:05;;;;;;;37.83;25.63;;;21.70;1.00;;;;;;4988167;28;20462;-66
2022/08/19 10:54:17;;;;;;;34.97;22.70;;;21.60;1.00;;;;;;4990670;28;20475;-65
2022/08/19 10:56:52;;;;;;;27.27;20.80;;;21.70;1.00;;;;;;4988921;28;20432;-64
2022/08/19 10:59:29;;;;;;;27.37;22.13;;;21.70;99.90;;;;;;4989985;28;20523;-67
2022/08/19 11:01:59;;;;;;;28.00;23.00;;;21.80;1.00;;;;;;4993645;28;21061;-66
2022/08/19 11:04:26;;;;;;;36.63;23.67;;;21.80;93.60;;;;;;4991754;28;20471;-67
2022/08/19 11:06:51;;;;;;;28.97;24.80;;;21.80;99.90;;;;;;4990067;28;20987;-64
2022/08/19 11:09:21;;;;;;;30.57;21.80;;;21.70;51.80;;;;;;4988004;28;20455;-66
2022/08/19 11:11:47;;;;;;;43.13;25.70;;;21.70;99.90;;;;;;4987315;28;20277;-65
2022/08/19 11:14:16;;;;;;;99.13;30.00;;;21.60;1.00;;;;;;4988603;28;20431;-67
2022/08/19 11:16:42;;;;;;;41.40;24.10;;;21.70;1.00;;;;;;4987918;28;20458;-65
2022/08/19 11:19:11;;;;;;;36.23;22.60;;;21.50;99.90;;;;;;4987828;28;20806;-67
2022/08/19 11:21:40;;;;;;;67.50;26.77;;;21.60;99.90;;;;;;4988252;28;20436;-66
2022/08/19 11:24:10;;;;;;;34.30;24.67;;;21.60;1.00;;;;;;4988598;28;20427;-66
2022/08/19 11:26:38;;;;;;;45.73;24.23;;;21.50;1.00;;;;;;4987422;28;21067;-64
2022/08/19 11:29:05;;;;;;;38.37;22.63;;;21.50;99.90;;;;;;4981780;28;20578;-64
2022/08/19 11:31:35;;;;;;;33.43;22.97;;;21.60;11.60;;;;;;4987928;28;20416;-67
2022/08/19 11:34:05;;;;;;;37.77;22.80;;;21.60;1.00;;;;;;4985085;28;20783;-65
2022/08/19 11:36:34;;;;;;;49.07;27.17;;;21.50;1.00;;;;;;4988322;28;20498;-64
2022/08/19 11:39:01;;;;;;;35.40;20.20;;;21.60;1.00;;;;;;4986047;28;20968;-64
2022/08/19 11:41:27;;;;;;;31.03;23.20;;;21.20;99.90;;;;;;4987327;28;20813;-67
2022/08/19 11:43:54;;;;;;;30.47;22.60;;;21.20;1.00;;;;;;4988396;28;20494;-66
2022/08/19 11:46:22;;;;;;;32.37;21.40;;;21.30;99.90;;;;;;4984916;28;20459;-66
2022/08/19 11:48:49;;;;;;;24.97;22.27;;;21.30;1.00;;;;;;4987493;28;20930;-67
2022/08/19 11:51:19;;;;;;;28.70;20.40;;;21.40;99.90;;;;;;4988197;28;22026;-66
2022/08/19 11:53:45;;;;;;;35.10;22.67;;;21.50;1.00;;;;;;4988670;28;20458;-65
2022/08/19 11:56:11;;;;;;;38.70;20.97;;;21.50;99.90;;;;;;4987098;28;20431;-65
2022/08/19 11:58:37;;;;;;;32.27;19.70;;;21.60;1.00;;;;;;4988125;28;20460;-66
2022/08/19 12:01:07;;;;;;;28.37;23.20;;;21.60;99.90;;;;;;4987500;28;20424;-66
2022/08/19 12:03:33;;;;;;;29.13;25.07;;;21.40;1.00;;;;;;4988047;28;20416;-66
2022/08/19 12:06:07;;;;;;;44.33;28.77;;;21.20;99.90;;;;;;4987459;28;20759;-66
2022/08/19 12:08:33;;;;;;;45.63;26.73;;;21.00;99.90;;;;;;4987447;28;20444;-67
2022/08/19 12:11:02;;;;;;;39.30;25.90;;;20.80;1.00;;;;;;4986141;28;20430;-66
2022/08/19 12:13:29;;;;;;;40.57;25.97;;;20.70;1.00;;;;;;4987979;28;20430;-66
2022/08/19 12:15:56;;;;;;;42.57;27.53;;;20.60;25.80;;;;;;4987470;28;20431;-66
2022/08/19 12:18:22;;;;;;;32.17;26.63;;;20.50;99.90;;;;;;4985761;28;20466;-66
2022/08/19 12:20:51;;;;;;;34.03;28.27;;;20.60;99.90;;;;;;4987290;28;20420;-67
2022/08/19 12:23:17;;;;;;;58.93;28.57;;;20.50;99.90;;;;;;4988280;28;20771;-66
2022/08/19 12:25:51;;;;;;;65.10;28.80;;;20.50;99.90;;;;;;4987865;28;20523;-66
2022/08/19 12:28:21;;;;;;;31.67;26.20;;;20.50;99.90;;;;;;4969170;28;20203;-66
2022/08/19 12:30:48;;;;;;;32.37;25.33;;;20.40;99.90;;;;;;4987203;28;20419;-66
2022/08/19 12:33:14;;;;;;;31.90;24.17;;;20.40;99.90;;;;;;4986032;28;20434;-65
2022/08/19 12:35:46;;;;;;;31.07;26.63;;;20.30;99.90;;;;;;4988365;28;20427;-65
2022/08/19 12:38:12;;;;;;;41.97;25.07;;;20.30;99.90;;;;;;4986443;28;20231;-66
2022/08/19 12:40:39;;;;;;;33.00;25.83;;;20.40;99.90;;;;;;4987539;28;20443;-66
2022/08/19 12:43:09;;;;;;;43.23;25.80;;;20.40;99.90;;;;;;4987421;28;20474;-66
2022/08/19 12:45:35;;;;;;;47.03;25.83;;;20.40;99.90;;;;;;4987720;28;20455;-65
2022/08/19 12:48:00;;;;;;;27.63;24.20;;;20.40;99.90;;;;;;4987363;28;20465;-66
2022/08/19 12:50:27;;;;;;;28.43;25.10;;;20.40;1.00;;;;;;4988900;28;20174;-65
2022/08/19 12:52:52;;;;;;;31.97;24.60;;;20.30;1.00;;;;;;4991840;28;20181;-67
2022/08/19 12:55:18;;;;;;;38.87;24.50;;;20.30;1.00;;;;;;4992074;28;20404;-64
2022/08/19 12:57:45;;;;;;;29.20;25.00;;;20.40;1.00;;;;;;4987811;28;20262;-66